Key West NAF, FL

10:16 AM EDT on October 21, 2014 (GMT -0400)
Key West International | Change Station
CLOSE
Current Station
Airport
Location: Key West,
Elevation: 0 ft
Nearby Weather Stations

Elev 0 ft 24.56 °N, 81.75 °W | Updated 23 minutes ago

Overcast
Overcast
82 °F
Feels Like 89 °F
N
7
Wind Variable Wind from South

Today
High -- | Low -- °F
--% Chance of Precip.
Yesterday
High -- | Low -- °F
Precip. -- in
7:27 AM 6:54 PM
Waning Crescent, 5% visible
Pressure 29.96 in
Visibility 10.0 miles
Clouds Scattered Clouds 2200 ft
Scattered Clouds 4500 ft
Mostly Cloudy 5500 ft
Heat Index 89 °F
Dew Point 76 °F
Humidity 82%
Rainfall 0.00 in
Snow Depth Not available.
UV 2 out of 12
Pollen .50 out of 12
Air Quality Not available.
Flu Activity Local Activity
METAR KEYW 211353Z 17006KT 10SM SCT022 SCT045 BKN055 28/24 A2996 RMK AO2 LTG DSNT SE AND S SLP143 T02780244

More Conditions Fewer Conditions

Pressure 29.96 in
Visibility 10.0 miles
Clouds Scattered Clouds 2200 ft
Scattered Clouds 4500 ft
Mostly Cloudy 5500 ft
Heat Index 89 °F
Dew Point 76 °F
Humidity 82%
Rainfall 0.00 in
Snow Depth Not available.
UV 2 out of 12
Pollen .50 out of 12
Air Quality Not available.
Flu Activity Local Activity
METAR KEYW 211353Z 17006KT 10SM SCT022 SCT045 BKN055 28/24 A2996 RMK AO2 LTG DSNT SE AND S SLP143 T02780244

More Conditions Fewer Conditions

Nowcast | as of 9:39 am EDT on October 21, 2014

Until 11 am...scattered to numerous showers and embedded thunderstorms will impact the Florida Keys and the adjacent nearshore and surrounding offshore waters of the island chain. Movement of most activity will be toward the west northwest near 10 knots. Over land...a good portion of the Lower and Middle Keys...between Summerland Key and Grassy Key will receive moderate to heavy rain. The majority and stronger cells will deliver wind gusts of 25 to 30 knots...cut visibility to below 4 miles in moderate to heavy rain and occasional lightning strikes.

×

10-Day Weather Forecast

Almanac

Astronomy

Oct. 21, 2014 Rise Set
Actual Time 7:27 AM EDT 6:54 PM EDT
Civil Twilight 7:04 AM EDT 7:17 PM EDT
Nautical Twilight 6:37 AM EDT 7:44 PM EDT
Astronomical Twilight 6:11 AM EDT 8:11 PM EDT
Moon 5:24 AM EDT 5:37 PM EDT
Length of Visible Light 12h 13m
Length of Day
11h 27m
Tomorrow will be 1m 20s shorter.
Waning Crescent, 5% of the Moon is Illuminated
Today
Waning Crescent
Oct 23
New
Oct 30
First Quarter
Nov 6
Full
Nov 14
Last Quarter

Today's Extremes

State Highs State Lows

Community

WunderPhotos

Upload Photos

1,763,671 photos uploaded!

Nearby

Snow Depth

Station Depth Elevation
No new snow has been reported.

Earthquake Activity

City Distance Mag. Time & Date
No recent earthquake activity has been reported nearby.
Minimum magnitude displayed is 2.5.

Coastal Water Temperatures

Place Temperature
No Stations Reporting

Nearby Weather Stations